sensor_id;sensor_type;location;lat;lon;timestamp;P1;durP1;ratioP1;P2;durP2;ratioP2
3274;SDS011;1649;53.672;10.064;2022-07-21T00:01:17;19.53;;;14.97;;
3274;SDS011;1649;53.672;10.064;2022-07-21T00:03:42;25.50;;;15.00;;
3274;SDS011;1649;53.672;10.064;2022-07-21T00:06:08;20.57;;;14.90;;
3274;SDS011;1649;53.672;10.064;2022-07-21T00:08:34;20.23;;;15.47;;
3274;SDS011;1649;53.672;10.064;2022-07-21T00:10:59;20.13;;;14.60;;
3274;SDS011;1649;53.672;10.064;2022-07-21T00:13:25;22.47;;;15.17;;
3274;SDS011;1649;53.672;10.064;2022-07-21T00:15:50;23.10;;;15.63;;
3274;SDS011;1649;53.672;10.064;2022-07-21T00:18:17;20.87;;;14.70;;
3274;SDS011;1649;53.672;10.064;2022-07-21T00:20:43;20.43;;;14.80;;
3274;SDS011;1649;53.672;10.064;2022-07-21T00:23:09;18.00;;;13.80;;
3274;SDS011;1649;53.672;10.064;2022-07-21T00:25:35;22.70;;;14.20;;
3274;SDS011;1649;53.672;10.064;2022-07-21T00:28:03;19.17;;;14.37;;
3274;SDS011;1649;53.672;10.064;2022-07-21T00:30:29;19.73;;;15.30;;
3274;SDS011;1649;53.672;10.064;2022-07-21T00:32:55;20.53;;;15.13;;
3274;SDS011;1649;53.672;10.064;2022-07-21T00:35:21;20.57;;;15.00;;
3274;SDS011;1649;53.672;10.064;2022-07-21T00:37:46;21.03;;;15.20;;
3274;SDS011;1649;53.672;10.064;2022-07-21T00:40:12;18.40;;;14.30;;
3274;SDS011;1649;53.672;10.064;2022-07-21T00:42:38;20.90;;;15.37;;
3274;SDS011;1649;53.672;10.064;2022-07-21T00:45:05;19.60;;;14.43;;
3274;SDS011;1649;53.672;10.064;2022-07-21T00:47:31;20.00;;;15.43;;
3274;SDS011;1649;53.672;10.064;2022-07-21T00:49:58;19.30;;;14.70;;
3274;SDS011;1649;53.672;10.064;2022-07-21T00:52:25;19.10;;;14.37;;
3274;SDS011;1649;53.672;10.064;2022-07-21T00:54:51;19.47;;;14.83;;
3274;SDS011;1649;53.672;10.064;2022-07-21T00:57:17;24.33;;;14.13;;
3274;SDS011;1649;53.672;10.064;2022-07-21T00:59:43;22.20;;;13.87;;
3274;SDS011;1649;53.672;10.064;2022-07-21T01:02:09;17.70;;;13.50;;
3274;SDS011;1649;53.672;10.064;2022-07-21T01:04:35;18.93;;;13.00;;
3274;SDS011;1649;53.672;10.064;2022-07-21T01:07:01;17.63;;;14.37;;
3274;SDS011;1649;53.672;10.064;2022-07-21T01:09:28;19.83;;;15.33;;
3274;SDS011;1649;53.672;10.064;2022-07-21T01:11:53;20.40;;;15.10;;
3274;SDS011;1649;53.672;10.064;2022-07-21T01:14:19;21.37;;;15.30;;
3274;SDS011;1649;53.672;10.064;2022-07-21T01:16:45;20.90;;;14.67;;
3274;SDS011;1649;53.672;10.064;2022-07-21T01:19:10;19.30;;;13.73;;
3274;SDS011;1649;53.672;10.064;2022-07-21T01:21:37;19.97;;;13.50;;
3274;SDS011;1649;53.672;10.064;2022-07-21T01:24:05;21.70;;;14.57;;
3274;SDS011;1649;53.672;10.064;2022-07-21T01:26:38;18.87;;;14.67;;
3274;SDS011;1649;53.672;10.064;2022-07-21T01:29:15;19.90;;;14.70;;
3274;SDS011;1649;53.672;10.064;2022-07-21T01:31:42;18.03;;;14.00;;
3274;SDS011;1649;53.672;10.064;2022-07-21T01:34:09;23.97;;;15.10;;
3274;SDS011;1649;53.672;10.064;2022-07-21T01:36:36;18.43;;;15.33;;
3274;SDS011;1649;53.672;10.064;2022-07-21T01:39:02;20.37;;;14.20;;
3274;SDS011;1649;53.672;10.064;2022-07-21T01:41:46;23.50;;;14.83;;
3274;SDS011;1649;53.672;10.064;2022-07-21T01:44:12;22.83;;;15.80;;
3274;SDS011;1649;53.672;10.064;2022-07-21T01:46:43;21.83;;;14.63;;
3274;SDS011;1649;53.672;10.064;2022-07-21T01:49:10;17.87;;;13.50;;
3274;SDS011;1649;53.672;10.064;2022-07-21T01:51:37;18.10;;;14.47;;
3274;SDS011;1649;53.672;10.064;2022-07-21T01:54:03;21.90;;;15.60;;
3274;SDS011;1649;53.672;10.064;2022-07-21T01:56:29;22.20;;;15.30;;
3274;SDS011;1649;53.672;10.064;2022-07-21T01:58:55;21.43;;;16.90;;
3274;SDS011;1649;53.672;10.064;2022-07-21T02:01:22;24.20;;;18.07;;
3274;SDS011;1649;53.672;10.064;2022-07-21T02:03:49;22.37;;;16.87;;
3274;SDS011;1649;53.672;10.064;2022-07-21T02:06:15;27.90;;;19.20;;
3274;SDS011;1649;53.672;10.064;2022-07-21T02:08:41;26.87;;;19.60;;
3274;SDS011;1649;53.672;10.064;2022-07-21T02:11:09;24.70;;;18.77;;
3274;SDS011;1649;53.672;10.064;2022-07-21T02:13:36;23.13;;;17.40;;
3274;SDS011;1649;53.672;10.064;2022-07-21T02:16:02;30.27;;;19.73;;
3274;SDS011;1649;53.672;10.064;2022-07-21T02:18:28;25.70;;;18.10;;
3274;SDS011;1649;53.672;10.064;2022-07-21T02:20:54;22.90;;;17.60;;
3274;SDS011;1649;53.672;10.064;2022-07-21T02:23:20;30.80;;;18.43;;
3274;SDS011;1649;53.672;10.064;2022-07-21T02:25:46;24.53;;;16.30;;
3274;SDS011;1649;53.672;10.064;2022-07-21T02:28:12;25.87;;;17.07;;
3274;SDS011;1649;53.672;10.064;2022-07-21T02:30:38;25.50;;;17.10;;
3274;SDS011;1649;53.672;10.064;2022-07-21T02:33:04;22.47;;;17.10;;
3274;SDS011;1649;53.672;10.064;2022-07-21T02:35:30;25.73;;;17.03;;
3274;SDS011;1649;53.672;10.064;2022-07-21T02:37:56;28.23;;;16.87;;
3274;SDS011;1649;53.672;10.064;2022-07-21T02:40:22;29.60;;;17.00;;
3274;SDS011;1649;53.672;10.064;2022-07-21T02:42:47;27.30;;;17.80;;
3274;SDS011;1649;53.672;10.064;2022-07-21T02:45:13;26.80;;;17.17;;
3274;SDS011;1649;53.672;10.064;2022-07-21T02:47:58;28.93;;;17.30;;
3274;SDS011;1649;53.672;10.064;2022-07-21T02:50:30;24.87;;;16.80;;
3274;SDS011;1649;53.672;10.064;2022-07-21T02:52:57;27.13;;;18.00;;
3274;SDS011;1649;53.672;10.064;2022-07-21T02:55:25;26.03;;;17.70;;
3274;SDS011;1649;53.672;10.064;2022-07-21T03:00:36;27.40;;;17.80;;
3274;SDS011;1649;53.672;10.064;2022-07-21T03:03:06;24.13;;;18.40;;
3274;SDS011;1649;53.672;10.064;2022-07-21T03:05:33;26.50;;;17.50;;
3274;SDS011;1649;53.672;10.064;2022-07-21T03:07:59;24.40;;;18.63;;
3274;SDS011;1649;53.672;10.064;2022-07-21T03:10:25;26.67;;;19.57;;
3274;SDS011;1649;53.672;10.064;2022-07-21T03:12:50;26.23;;;18.60;;
3274;SDS011;1649;53.672;10.064;2022-07-21T03:15:16;28.13;;;19.40;;
3274;SDS011;1649;53.672;10.064;2022-07-21T03:17:41;29.97;;;19.37;;
3274;SDS011;1649;53.672;10.064;2022-07-21T03:20:07;29.40;;;19.63;;
3274;SDS011;1649;53.672;10.064;2022-07-21T03:22:33;34.13;;;20.23;;
3274;SDS011;1649;53.672;10.064;2022-07-21T03:24:58;31.00;;;19.47;;
3274;SDS011;1649;53.672;10.064;2022-07-21T03:27:24;32.60;;;20.10;;
3274;SDS011;1649;53.672;10.064;2022-07-21T03:29:50;29.07;;;19.90;;
3274;SDS011;1649;53.672;10.064;2022-07-21T03:32:15;31.57;;;21.53;;
3274;SDS011;1649;53.672;10.064;2022-07-21T03:34:41;25.20;;;19.47;;
3274;SDS011;1649;53.672;10.064;2022-07-21T03:37:06;35.60;;;22.43;;
3274;SDS011;1649;53.672;10.064;2022-07-21T03:39:32;26.33;;;19.60;;
3274;SDS011;1649;53.672;10.064;2022-07-21T03:41:57;30.27;;;20.50;;
3274;SDS011;1649;53.672;10.064;2022-07-21T03:44:23;31.73;;;22.13;;
3274;SDS011;1649;53.672;10.064;2022-07-21T03:46:48;32.17;;;22.43;;
3274;SDS011;1649;53.672;10.064;2022-07-21T03:49:14;29.83;;;19.90;;
3274;SDS011;1649;53.672;10.064;2022-07-21T03:51:39;34.83;;;20.70;;
3274;SDS011;1649;53.672;10.064;2022-07-21T03:54:05;29.00;;;18.73;;
3274;SDS011;1649;53.672;10.064;2022-07-21T03:56:30;28.23;;;17.50;;
3274;SDS011;1649;53.672;10.064;2022-07-21T03:58:56;30.33;;;18.60;;
3274;SDS011;1649;53.672;10.064;2022-07-21T04:01:21;25.00;;;16.27;;
3274;SDS011;1649;53.672;10.064;2022-07-21T04:03:47;27.43;;;15.50;;
3274;SDS011;1649;53.672;10.064;2022-07-21T04:06:12;21.53;;;14.67;;
3274;SDS011;1649;53.672;10.064;2022-07-21T04:08:38;20.93;;;14.20;;
3274;SDS011;1649;53.672;10.064;2022-07-21T04:11:04;22.73;;;14.23;;
3274;SDS011;1649;53.672;10.064;2022-07-21T04:13:29;22.23;;;12.80;;
3274;SDS011;1649;53.672;10.064;2022-07-21T04:15:55;18.57;;;11.70;;
3274;SDS011;1649;53.672;10.064;2022-07-21T04:18:20;21.57;;;12.77;;
3274;SDS011;1649;53.672;10.064;2022-07-21T04:20:46;20.20;;;11.93;;
3274;SDS011;1649;53.672;10.064;2022-07-21T04:23:11;21.63;;;12.70;;
3274;SDS011;1649;53.672;10.064;2022-07-21T04:25:37;16.50;;;9.37;;
3274;SDS011;1649;53.672;10.064;2022-07-21T04:28:04;22.23;;;10.50;;
3274;SDS011;1649;53.672;10.064;2022-07-21T04:30:30;19.17;;;11.47;;
3274;SDS011;1649;53.672;10.064;2022-07-21T04:32:55;17.10;;;11.03;;
3274;SDS011;1649;53.672;10.064;2022-07-21T04:35:21;23.00;;;8.90;;
3274;SDS011;1649;53.672;10.064;2022-07-21T04:37:48;17.50;;;9.97;;
3274;SDS011;1649;53.672;10.064;2022-07-21T04:40:14;18.20;;;9.87;;
3274;SDS011;1649;53.672;10.064;2022-07-21T04:42:40;19.60;;;9.00;;
3274;SDS011;1649;53.672;10.064;2022-07-21T04:45:07;18.00;;;9.30;;
3274;SDS011;1649;53.672;10.064;2022-07-21T04:47:41;18.70;;;8.63;;
3274;SDS011;1649;53.672;10.064;2022-07-21T04:50:08;18.07;;;8.57;;
3274;SDS011;1649;53.672;10.064;2022-07-21T04:52:35;13.10;;;8.03;;
3274;SDS011;1649;53.672;10.064;2022-07-21T04:55:00;16.30;;;8.30;;
3274;SDS011;1649;53.672;10.064;2022-07-21T04:57:26;12.87;;;8.10;;
3274;SDS011;1649;53.672;10.064;2022-07-21T04:59:51;13.67;;;8.30;;
3274;SDS011;1649;53.672;10.064;2022-07-21T05:02:17;17.03;;;8.70;;
3274;SDS011;1649;53.672;10.064;2022-07-21T05:04:42;18.07;;;8.50;;
3274;SDS011;1649;53.672;10.064;2022-07-21T05:07:08;15.37;;;7.47;;
3274;SDS011;1649;53.672;10.064;2022-07-21T05:09:33;14.37;;;7.40;;
3274;SDS011;1649;53.672;10.064;2022-07-21T05:11:59;17.53;;;7.90;;
3274;SDS011;1649;53.672;10.064;2022-07-21T05:14:24;11.40;;;6.67;;
3274;SDS011;1649;53.672;10.064;2022-07-21T05:16:50;13.73;;;7.33;;
3274;SDS011;1649;53.672;10.064;2022-07-21T05:19:15;12.27;;;6.90;;
3274;SDS011;1649;53.672;10.064;2022-07-21T05:21:41;17.00;;;6.70;;
3274;SDS011;1649;53.672;10.064;2022-07-21T05:24:06;14.33;;;6.80;;
3274;SDS011;1649;53.672;10.064;2022-07-21T05:26:32;16.67;;;6.50;;
3274;SDS011;1649;53.672;10.064;2022-07-21T05:28:58;16.80;;;6.13;;
3274;SDS011;1649;53.672;10.064;2022-07-21T05:31:23;14.63;;;6.27;;
3274;SDS011;1649;53.672;10.064;2022-07-21T05:33:49;9.90;;;6.17;;
3274;SDS011;1649;53.672;10.064;2022-07-21T05:36:14;21.50;;;6.40;;
3274;SDS011;1649;53.672;10.064;2022-07-21T05:38:40;10.70;;;5.90;;
3274;SDS011;1649;53.672;10.064;2022-07-21T05:41:05;11.13;;;5.70;;
3274;SDS011;1649;53.672;10.064;2022-07-21T05:43:31;13.60;;;6.00;;
3274;SDS011;1649;53.672;10.064;2022-07-21T05:45:56;15.67;;;6.37;;
3274;SDS011;1649;53.672;10.064;2022-07-21T05:48:23;9.90;;;5.00;;
3274;SDS011;1649;53.672;10.064;2022-07-21T05:50:48;12.23;;;5.60;;
3274;SDS011;1649;53.672;10.064;2022-07-21T05:53:14;12.67;;;6.30;;
3274;SDS011;1649;53.672;10.064;2022-07-21T05:55:39;12.20;;;5.77;;
3274;SDS011;1649;53.672;10.064;2022-07-21T05:58:05;12.20;;;5.83;;
3274;SDS011;1649;53.672;10.064;2022-07-21T06:00:30;10.17;;;6.00;;
3274;SDS011;1649;53.672;10.064;2022-07-21T06:02:56;11.47;;;6.07;;
3274;SDS011;1649;53.672;10.064;2022-07-21T06:05:21;10.47;;;5.53;;
3274;SDS011;1649;53.672;10.064;2022-07-21T06:07:46;11.20;;;5.60;;
3274;SDS011;1649;53.672;10.064;2022-07-21T06:10:13;16.70;;;6.10;;
3274;SDS011;1649;53.672;10.064;2022-07-21T06:12:39;14.33;;;6.40;;
3274;SDS011;1649;53.672;10.064;2022-07-21T06:15:05;10.30;;;6.30;;
3274;SDS011;1649;53.672;10.064;2022-07-21T06:17:32;9.47;;;6.23;;
3274;SDS011;1649;53.672;10.064;2022-07-21T06:20:10;15.60;;;6.03;;
3274;SDS011;1649;53.672;10.064;2022-07-21T06:22:37;10.07;;;5.53;;
3274;SDS011;1649;53.672;10.064;2022-07-21T06:25:03;12.03;;;5.73;;
3274;SDS011;1649;53.672;10.064;2022-07-21T06:27:30;11.07;;;5.80;;
3274;SDS011;1649;53.672;10.064;2022-07-21T06:29:56;15.77;;;6.43;;
3274;SDS011;1649;53.672;10.064;2022-07-21T06:32:23;14.63;;;6.70;;
3274;SDS011;1649;53.672;10.064;2022-07-21T06:34:50;11.73;;;6.07;;
3274;SDS011;1649;53.672;10.064;2022-07-21T06:37:15;11.10;;;5.77;;
3274;SDS011;1649;53.672;10.064;2022-07-21T06:39:41;12.60;;;6.27;;
3274;SDS011;1649;53.672;10.064;2022-07-21T06:42:07;12.27;;;6.27;;
3274;SDS011;1649;53.672;10.064;2022-07-21T06:44:33;15.90;;;7.00;;
3274;SDS011;1649;53.672;10.064;2022-07-21T06:46:58;13.13;;;6.83;;
3274;SDS011;1649;53.672;10.064;2022-07-21T06:49:29;15.40;;;7.43;;
3274;SDS011;1649;53.672;10.064;2022-07-21T06:51:55;13.13;;;7.10;;
3274;SDS011;1649;53.672;10.064;2022-07-21T06:54:20;14.60;;;7.23;;
3274;SDS011;1649;53.672;10.064;2022-07-21T06:56:46;16.00;;;8.30;;
3274;SDS011;1649;53.672;10.064;2022-07-21T06:59:12;16.53;;;8.50;;
3274;SDS011;1649;53.672;10.064;2022-07-21T07:01:37;17.60;;;7.90;;
3274;SDS011;1649;53.672;10.064;2022-07-21T07:04:03;16.27;;;7.90;;
3274;SDS011;1649;53.672;10.064;2022-07-21T07:06:29;15.40;;;7.67;;
3274;SDS011;1649;53.672;10.064;2022-07-21T07:08:54;15.83;;;8.63;;
3274;SDS011;1649;53.672;10.064;2022-07-21T07:11:20;13.10;;;8.47;;
3274;SDS011;1649;53.672;10.064;2022-07-21T07:13:45;16.03;;;8.80;;
3274;SDS011;1649;53.672;10.064;2022-07-21T07:16:11;18.40;;;8.87;;
3274;SDS011;1649;53.672;10.064;2022-07-21T07:18:38;17.17;;;9.67;;
3274;SDS011;1649;53.672;10.064;2022-07-21T07:21:03;12.70;;;8.40;;
3274;SDS011;1649;53.672;10.064;2022-07-21T07:23:29;19.30;;;10.20;;
3274;SDS011;1649;53.672;10.064;2022-07-21T07:25:54;19.50;;;10.70;;
3274;SDS011;1649;53.672;10.064;2022-07-21T07:28:20;22.30;;;10.17;;
3274;SDS011;1649;53.672;10.064;2022-07-21T07:30:45;15.73;;;10.23;;
3274;SDS011;1649;53.672;10.064;2022-07-21T07:33:11;21.43;;;9.93;;
3274;SDS011;1649;53.672;10.064;2022-07-21T07:35:36;18.53;;;9.70;;
3274;SDS011;1649;53.672;10.064;2022-07-21T07:38:02;20.70;;;9.77;;
3274;SDS011;1649;53.672;10.064;2022-07-21T07:40:27;20.40;;;10.50;;
3274;SDS011;1649;53.672;10.064;2022-07-21T07:42:53;20.20;;;11.23;;
3274;SDS011;1649;53.672;10.064;2022-07-21T07:45:18;18.00;;;11.60;;
3274;SDS011;1649;53.672;10.064;2022-07-21T07:47:44;19.07;;;11.57;;
3274;SDS011;1649;53.672;10.064;2022-07-21T07:50:10;19.37;;;11.97;;
3274;SDS011;1649;53.672;10.064;2022-07-21T07:52:37;23.67;;;13.20;;
3274;SDS011;1649;53.672;10.064;2022-07-21T07:55:03;18.83;;;12.17;;
3274;SDS011;1649;53.672;10.064;2022-07-21T07:57:32;18.33;;;12.27;;
3274;SDS011;1649;53.672;10.064;2022-07-21T07:59:59;20.60;;;13.43;;
3274;SDS011;1649;53.672;10.064;2022-07-21T08:02:24;18.17;;;12.23;;
3274;SDS011;1649;53.672;10.064;2022-07-21T08:04:49;24.97;;;14.30;;
3274;SDS011;1649;53.672;10.064;2022-07-21T08:07:15;22.77;;;13.40;;
3274;SDS011;1649;53.672;10.064;2022-07-21T08:09:41;20.70;;;14.30;;
3274;SDS011;1649;53.672;10.064;2022-07-21T08:12:06;23.80;;;14.10;;
3274;SDS011;1649;53.672;10.064;2022-07-21T08:14:32;23.43;;;14.50;;
3274;SDS011;1649;53.672;10.064;2022-07-21T08:16:57;23.63;;;14.47;;
3274;SDS011;1649;53.672;10.064;2022-07-21T08:19:24;21.60;;;15.60;;
3274;SDS011;1649;53.672;10.064;2022-07-21T08:21:50;25.70;;;15.53;;
3274;SDS011;1649;53.672;10.064;2022-07-21T08:24:15;23.00;;;14.50;;
3274;SDS011;1649;53.672;10.064;2022-07-21T08:26:41;25.40;;;14.17;;
3274;SDS011;1649;53.672;10.064;2022-07-21T08:29:06;21.50;;;14.07;;
3274;SDS011;1649;53.672;10.064;2022-07-21T08:31:32;22.00;;;13.77;;
3274;SDS011;1649;53.672;10.064;2022-07-21T08:33:57;17.77;;;13.67;;
3274;SDS011;1649;53.672;10.064;2022-07-21T08:36:23;19.70;;;13.90;;
3274;SDS011;1649;53.672;10.064;2022-07-21T08:38:48;19.00;;;14.77;;
3274;SDS011;1649;53.672;10.064;2022-07-21T08:41:14;19.77;;;13.50;;
3274;SDS011;1649;53.672;10.064;2022-07-21T08:43:39;21.73;;;13.03;;
3274;SDS011;1649;53.672;10.064;2022-07-21T08:46:05;23.43;;;14.20;;
3274;SDS011;1649;53.672;10.064;2022-07-21T08:48:30;20.80;;;13.53;;
3274;SDS011;1649;53.672;10.064;2022-07-21T08:50:56;19.10;;;12.40;;
3274;SDS011;1649;53.672;10.064;2022-07-21T08:53:22;17.17;;;11.30;;
3274;SDS011;1649;53.672;10.064;2022-07-21T08:55:49;14.80;;;11.13;;
3274;SDS011;1649;53.672;10.064;2022-07-21T08:58:15;18.00;;;12.20;;
3274;SDS011;1649;53.672;10.064;2022-07-21T09:00:45;18.53;;;12.70;;
3274;SDS011;1649;53.672;10.064;2022-07-21T09:03:17;17.17;;;14.10;;
3274;SDS011;1649;53.672;10.064;2022-07-21T09:06:04;19.43;;;14.30;;
3274;SDS011;1649;53.672;10.064;2022-07-21T09:08:39;19.47;;;15.10;;
3274;SDS011;1649;53.672;10.064;2022-07-21T09:11:08;24.73;;;15.67;;
3274;SDS011;1649;53.672;10.064;2022-07-21T09:13:37;23.10;;;15.97;;
3274;SDS011;1649;53.672;10.064;2022-07-21T09:16:03;19.67;;;16.80;;
3274;SDS011;1649;53.672;10.064;2022-07-21T09:18:29;27.33;;;19.40;;
3274;SDS011;1649;53.672;10.064;2022-07-21T09:20:55;23.00;;;19.27;;
3274;SDS011;1649;53.672;10.064;2022-07-21T09:23:21;29.50;;;20.90;;
3274;SDS011;1649;53.672;10.064;2022-07-21T09:25:52;26.60;;;19.77;;
3274;SDS011;1649;53.672;10.064;2022-07-21T09:30:48;27.00;;;20.13;;
3274;SDS011;1649;53.672;10.064;2022-07-21T09:36:08;28.90;;;20.40;;
3274;SDS011;1649;53.672;10.064;2022-07-21T09:38:34;30.20;;;22.43;;
3274;SDS011;1649;53.672;10.064;2022-07-21T09:41:09;25.90;;;20.30;;
3274;SDS011;1649;53.672;10.064;2022-07-21T09:43:49;29.60;;;18.80;;
3274;SDS011;1649;53.672;10.064;2022-07-21T09:46:26;26.30;;;22.13;;
3274;SDS011;1649;53.672;10.064;2022-07-21T09:48:55;26.97;;;20.90;;
3274;SDS011;1649;53.672;10.064;2022-07-21T09:56:29;23.47;;;18.30;;
3274;SDS011;1649;53.672;10.064;2022-07-21T09:58:57;22.63;;;18.20;;
3274;SDS011;1649;53.672;10.064;2022-07-21T10:01:24;25.93;;;19.43;;
3274;SDS011;1649;53.672;10.064;2022-07-21T10:03:51;25.40;;;20.20;;
3274;SDS011;1649;53.672;10.064;2022-07-21T10:06:18;27.43;;;20.03;;
3274;SDS011;1649;53.672;10.064;2022-07-21T10:08:47;23.43;;;19.13;;
3274;SDS011;1649;53.672;10.064;2022-07-21T10:11:14;25.37;;;20.87;;
3274;SDS011;1649;53.672;10.064;2022-07-21T10:13:40;22.03;;;18.60;;
3274;SDS011;1649;53.672;10.064;2022-07-21T10:16:08;23.50;;;17.83;;
3274;SDS011;1649;53.672;10.064;2022-07-21T10:18:36;23.67;;;19.43;;
3274;SDS011;1649;53.672;10.064;2022-07-21T10:23:52;18.87;;;16.40;;
3274;SDS011;1649;53.672;10.064;2022-07-21T10:26:20;24.40;;;17.17;;
3274;SDS011;1649;53.672;10.064;2022-07-21T10:28:46;22.00;;;16.87;;
3274;SDS011;1649;53.672;10.064;2022-07-21T10:31:16;20.57;;;15.30;;
3274;SDS011;1649;53.672;10.064;2022-07-21T10:49:41;18.47;;;14.80;;
3274;SDS011;1649;53.672;10.064;2022-07-21T10:55:17;20.07;;;17.40;;
3274;SDS011;1649;53.672;10.064;2022-07-21T10:58:10;22.90;;;17.33;;
3274;SDS011;1649;53.672;10.064;2022-07-21T11:01:08;17.10;;;15.07;;
3274;SDS011;1649;53.672;10.064;2022-07-21T11:03:47;17.73;;;14.83;;
3274;SDS011;1649;53.672;10.064;2022-07-21T11:06:41;14.90;;;13.30;;
3274;SDS011;1649;53.672;10.064;2022-07-21T11:09:08;16.63;;;13.83;;
3274;SDS011;1649;53.672;10.064;2022-07-21T11:12:18;14.33;;;12.83;;
3274;SDS011;1649;53.672;10.064;2022-07-21T11:14:41;13.87;;;11.77;;
3274;SDS011;1649;53.672;10.064;2022-07-21T11:17:10;11.90;;;9.47;;
3274;SDS011;1649;53.672;10.064;2022-07-21T11:19:50;11.30;;;9.60;;
3274;SDS011;1649;53.672;10.064;2022-07-21T11:22:24;12.70;;;10.00;;
3274;SDS011;1649;53.672;10.064;2022-07-21T11:24:55;33.57;;;30.70;;
3274;SDS011;1649;53.672;10.064;2022-07-21T11:27:25;22.00;;;15.83;;
3274;SDS011;1649;53.672;10.064;2022-07-21T11:29:54;11.07;;;9.97;;
3274;SDS011;1649;53.672;10.064;2022-07-21T11:32:24;11.13;;;10.00;;
3274;SDS011;1649;53.672;10.064;2022-07-21T11:34:55;13.13;;;10.00;;
3274;SDS011;1649;53.672;10.064;2022-07-21T11:37:29;9.87;;;8.40;;
3274;SDS011;1649;53.672;10.064;2022-07-21T11:39:56;11.00;;;8.50;;
3274;SDS011;1649;53.672;10.064;2022-07-21T11:42:24;11.10;;;10.00;;
3274;SDS011;1649;53.672;10.064;2022-07-21T11:44:50;11.87;;;10.47;;
3274;SDS011;1649;53.672;10.064;2022-07-21T11:47:16;13.03;;;10.90;;
3274;SDS011;1649;53.672;10.064;2022-07-21T11:49:42;11.63;;;9.30;;
3274;SDS011;1649;53.672;10.064;2022-07-21T11:52:09;8.27;;;7.47;;
3274;SDS011;1649;53.672;10.064;2022-07-21T11:54:49;7.97;;;6.30;;
3274;SDS011;1649;53.672;10.064;2022-07-21T11:57:16;8.93;;;6.83;;
3274;SDS011;1649;53.672;10.064;2022-07-21T11:59:43;8.80;;;7.70;;
3274;SDS011;1649;53.672;10.064;2022-07-21T12:02:10;9.17;;;7.50;;
3274;SDS011;1649;53.672;10.064;2022-07-21T12:04:43;10.10;;;8.50;;
3274;SDS011;1649;53.672;10.064;2022-07-21T12:09:47;10.43;;;8.07;;
3274;SDS011;1649;53.672;10.064;2022-07-21T12:12:14;7.43;;;6.30;;
3274;SDS011;1649;53.672;10.064;2022-07-21T12:14:51;7.57;;;6.30;;
3274;SDS011;1649;53.672;10.064;2022-07-21T12:17:17;8.10;;;6.50;;
3274;SDS011;1649;53.672;10.064;2022-07-21T12:19:58;6.57;;;5.87;;
3274;SDS011;1649;53.672;10.064;2022-07-21T12:22:34;7.60;;;5.97;;
3274;SDS011;1649;53.672;10.064;2022-07-21T12:25:05;7.17;;;5.70;;
3274;SDS011;1649;53.672;10.064;2022-07-21T12:27:33;8.27;;;5.87;;
3274;SDS011;1649;53.672;10.064;2022-07-21T12:30:01;7.50;;;6.07;;
3274;SDS011;1649;53.672;10.064;2022-07-21T12:32:38;10.83;;;6.17;;
3274;SDS011;1649;53.672;10.064;2022-07-21T12:35:15;6.87;;;5.80;;
3274;SDS011;1649;53.672;10.064;2022-07-21T12:40:22;7.00;;;5.27;;
3274;SDS011;1649;53.672;10.064;2022-07-21T12:42:49;7.07;;;5.80;;
3274;SDS011;1649;53.672;10.064;2022-07-21T12:45:19;7.00;;;5.50;;
3274;SDS011;1649;53.672;10.064;2022-07-21T12:50:33;7.57;;;5.10;;
3274;SDS011;1649;53.672;10.064;2022-07-21T12:53:00;6.77;;;5.50;;
3274;SDS011;1649;53.672;10.064;2022-07-21T12:55:25;6.97;;;4.80;;
3274;SDS011;1649;53.672;10.064;2022-07-21T12:57:51;6.93;;;5.40;;
3274;SDS011;1649;53.672;10.064;2022-07-21T13:00:16;6.10;;;5.07;;
3274;SDS011;1649;53.672;10.064;2022-07-21T13:02:45;6.60;;;5.30;;
3274;SDS011;1649;53.672;10.064;2022-07-21T13:05:16;6.20;;;4.93;;
3274;SDS011;1649;53.672;10.064;2022-07-21T13:07:41;6.77;;;5.20;;
3274;SDS011;1649;53.672;10.064;2022-07-21T13:10:07;7.43;;;5.40;;
3274;SDS011;1649;53.672;10.064;2022-07-21T13:12:33;6.53;;;5.13;;
3274;SDS011;1649;53.672;10.064;2022-07-21T13:14:58;8.73;;;6.00;;
3274;SDS011;1649;53.672;10.064;2022-07-21T13:17:24;10.63;;;6.77;;
3274;SDS011;1649;53.672;10.064;2022-07-21T13:19:49;7.13;;;5.00;;
3274;SDS011;1649;53.672;10.064;2022-07-21T13:22:15;7.70;;;6.00;;
3274;SDS011;1649;53.672;10.064;2022-07-21T13:24:40;7.17;;;5.20;;
3274;SDS011;1649;53.672;10.064;2022-07-21T13:27:06;7.33;;;5.33;;
3274;SDS011;1649;53.672;10.064;2022-07-21T13:29:31;6.77;;;5.90;;
3274;SDS011;1649;53.672;10.064;2022-07-21T13:31:57;7.50;;;5.77;;
3274;SDS011;1649;53.672;10.064;2022-07-21T13:34:22;6.70;;;5.57;;
3274;SDS011;1649;53.672;10.064;2022-07-21T13:36:48;5.67;;;4.40;;
3274;SDS011;1649;53.672;10.064;2022-07-21T13:39:13;6.23;;;4.87;;
3274;SDS011;1649;53.672;10.064;2022-07-21T13:41:39;7.30;;;5.60;;
3274;SDS011;1649;53.672;10.064;2022-07-21T13:44:05;11.20;;;5.97;;
3274;SDS011;1649;53.672;10.064;2022-07-21T13:46:31;17.83;;;9.03;;
3274;SDS011;1649;53.672;10.064;2022-07-21T13:48:56;17.60;;;9.70;;
3274;SDS011;1649;53.672;10.064;2022-07-21T13:51:22;15.50;;;10.70;;
3274;SDS011;1649;53.672;10.064;2022-07-21T13:53:48;17.00;;;10.50;;
3274;SDS011;1649;53.672;10.064;2022-07-21T13:56:15;17.80;;;10.70;;
3274;SDS011;1649;53.672;10.064;2022-07-21T13:58:42;12.27;;;10.97;;
3274;SDS011;1649;53.672;10.064;2022-07-21T14:01:08;10.90;;;9.80;;
3274;SDS011;1649;53.672;10.064;2022-07-21T14:03:34;10.90;;;9.40;;
3274;SDS011;1649;53.672;10.064;2022-07-21T14:06:01;10.93;;;9.80;;
3274;SDS011;1649;53.672;10.064;2022-07-21T14:08:26;10.97;;;9.53;;
3274;SDS011;1649;53.672;10.064;2022-07-21T14:10:52;10.10;;;8.27;;
3274;SDS011;1649;53.672;10.064;2022-07-21T14:13:18;10.53;;;9.17;;
3274;SDS011;1649;53.672;10.064;2022-07-21T14:15:43;11.13;;;8.37;;
3274;SDS011;1649;53.672;10.064;2022-07-21T14:18:09;10.33;;;8.90;;
3274;SDS011;1649;53.672;10.064;2022-07-21T14:20:34;9.63;;;8.27;;
3274;SDS011;1649;53.672;10.064;2022-07-21T14:23:00;10.00;;;7.50;;
3274;SDS011;1649;53.672;10.064;2022-07-21T14:25:25;9.33;;;7.90;;
3274;SDS011;1649;53.672;10.064;2022-07-21T14:27:53;10.67;;;7.90;;
3274;SDS011;1649;53.672;10.064;2022-07-21T14:30:20;8.60;;;7.67;;
3274;SDS011;1649;53.672;10.064;2022-07-21T14:32:46;7.37;;;5.83;;
3274;SDS011;1649;53.672;10.064;2022-07-21T14:35:13;7.53;;;5.60;;
3274;SDS011;1649;53.672;10.064;2022-07-21T14:37:41;8.50;;;6.33;;
3274;SDS011;1649;53.672;10.064;2022-07-21T14:40:08;7.70;;;5.83;;
3274;SDS011;1649;53.672;10.064;2022-07-21T14:42:34;6.40;;;5.23;;
3274;SDS011;1649;53.672;10.064;2022-07-21T14:44:59;5.60;;;4.70;;
3274;SDS011;1649;53.672;10.064;2022-07-21T14:47:25;6.83;;;5.10;;
3274;SDS011;1649;53.672;10.064;2022-07-21T14:49:51;7.00;;;4.77;;
3274;SDS011;1649;53.672;10.064;2022-07-21T14:52:17;8.53;;;5.00;;
3274;SDS011;1649;53.672;10.064;2022-07-21T14:54:42;6.70;;;4.80;;
3274;SDS011;1649;53.672;10.064;2022-07-21T14:57:09;7.03;;;4.90;;
3274;SDS011;1649;53.672;10.064;2022-07-21T14:59:34;5.67;;;4.03;;
3274;SDS011;1649;53.672;10.064;2022-07-21T15:02:00;5.70;;;4.30;;
3274;SDS011;1649;53.672;10.064;2022-07-21T15:04:26;6.50;;;4.77;;
3274;SDS011;1649;53.672;10.064;2022-07-21T15:06:52;6.60;;;4.70;;
3274;SDS011;1649;53.672;10.064;2022-07-21T15:09:17;6.90;;;5.20;;
3274;SDS011;1649;53.672;10.064;2022-07-21T15:11:43;7.33;;;5.10;;
3274;SDS011;1649;53.672;10.064;2022-07-21T15:14:08;7.93;;;5.43;;
3274;SDS011;1649;53.672;10.064;2022-07-21T15:16:34;6.57;;;5.10;;
3274;SDS011;1649;53.672;10.064;2022-07-21T15:18:59;7.60;;;5.40;;
3274;SDS011;1649;53.672;10.064;2022-07-21T15:21:25;8.33;;;5.20;;
3274;SDS011;1649;53.672;10.064;2022-07-21T15:23:51;7.40;;;5.30;;
3274;SDS011;1649;53.672;10.064;2022-07-21T15:26:16;7.23;;;5.00;;